AirNav   Pilot Hours Calculator
 
 965 users online  

63WA Boyle R & D Airport
Colbert, Washington, USA

GOING TO COLBERT?


FAA INFORMATION EFFECTIVE 16 JUNE 2022

Location

FAA Identifier: 63WA
Lat/Long: 47-50-00.0000N 117-16-25.0000W
47-50.000000N 117-16.416667W
47.8333333,-117.2736111
(estimated)
Elevation: 2350 ft. / 716 m (estimated)
Variation: 18E (1995)
From city: 4 miles E of COLBERT, WA
Time zone: UTC -7 (UTC -8 during Standard Time)
Zip code: 99005

Airport Operations

Airport use: Private use. Permission required prior to landing
Activation date: 02/1998
Control tower: no
ARTCC: SEATTLE CENTER
FSS: SEATTLE FLIGHT SERVICE STATION
Attendance: CONTINUOUS
Segmented circle: no

Airport Communications

WX ASOS at SFF (9 nm S): 120.55 (509-535-3290)
WX ASOS at DEW (10 nm NW): 135.175 (509-276-2303)
WX ASOS at GEG (17 nm SW): PHONE 509-742-2544
WX AWOS-3PT at COE (19 nm E): 135.075 (208-772-8215)

Airport Services

Runway Information

Runway 18/36

Dimensions: 1600 x 200 ft. / 488 x 61 m
Surface: dirt
RUNWAY 18  RUNWAY 36
Traffic pattern: leftleft

Airport Ownership and Management from official FAA records

Ownership: Privately-owned
Owner: TAB BOYLE
9709 E GREEN BLUFF ROAD
COLBERT, WA 99005
Phone 509-238-2470
Manager: TAB BOYLE
9709 E GREEN BLUFF ROAD
COLBERT, WA 99005
Phone 509-238-2470

Airport Operational Statistics

Aircraft based on the field: 1
Single engine airplanes: 1
    

Additional Remarks

FOR CD CTC SPOKANE APCH AT 509-742-2522

Instrument Procedures

There are no published instrument procedures at 63WA.

Some nearby airports with instrument procedures:

KSFF - Felts Field Airport (9 nm S)
KDEW - Deer Park Airport (10 nm NW)
KGEG - Spokane International Airport (17 nm SW)
KCOE - Coeur d'Alene Airport - Pappy Boyington Field (19 nm E)
KSKA - Fairchild Air Force Base (20 nm SW)
 
Loc | Ops | Rwys | IFR | FBO | Links
Com | Nav | Svcs | Stats | Notes
Area around 63WA (Boyle R & D Airport)
 
Road maps at: MapQuest Bing Google
 
Aerial photo
No photo
 
Sectional chart

 
Airport distance calculator
Flying to Boyle R & D Airport? Find the distance to fly.

From to 63WA

Sunrise and sunset
Times for 30-Jun-2022
 Local
(UTC-7)
 Zulu
(UTC)
Morning civil twilight04:1411:14
Sunrise04:5511:55
Sunset20:5103:51
Evening civil twilight21:3104:31

Current date and time
Zulu (UTC)  30-Jun-2022 12:09:28
Local (UTC-7)  30-Jun-2022 05:09:28
 
METAR
KSFF 
9nm S 
301153Z AUTO 00000KT 10SM CLR 13/09 A3011 RMK AO2 SLP185 T01280094 10183 20122 53004
KDEW 
10nm NW 
301153Z AUTO 03007KT 10SM OVC100 13/09 A3011 RMK AO2 SLP188 70001 T01330089 10150 20133 51004
KGEG 
17nm SW 
301153Z 04005KT 10SM SCT080 SCT100 SCT140 13/08 A3010 RMK AO2 SLP184 T01330083 10189 20133 53003
KCOE 
19nm E 
301156Z AUTO 05008KT 10SM BKN100 12/09 A3013 RMK AO2 SLP211 6//// 7//// T01170094 10161 20117 51005 PNO $
KSKA 
20nm SW 
301158Z AUTO 05005KT 10SM BKN075 BKN090 12/10 A3009 RMK AO2 SLP183 T01180100 10168 20115 53003 PWINO $
TAF
KSFF 
9nm S 
300520Z 3006/0106 VRB04KT P6SM SKC FM301700 11004KT P6SM SCT060 FM010000 05004KT P6SM SKC
KGEG 
17nm SW 
301130Z 3012/0112 07006KT P6SM FEW250 FM302100 03005KT P6SM SCT060 FM010500 05006KT P6SM SCT250
KCOE 
19nm E 
301130Z 3012/0112 10007KT P6SM SKC FM301600 05005KT P6SM SCT060 FM010200 36005KT P6SM BKN250 FM010800 06008KT P6SM BKN150
KSKA 
20nm SW 
300300Z 3003/0109 VRB06KT 9999 FEW060 QNH3004INS BECMG 3017/3018 15008KT 9999 FEW100 QNH3000INS WND 10008KT AFT 0102 TX28/3022Z TN10/3012Z
NOTAMs
Click for the latest NOTAMs
NOTAMs are issued by the DoD/FAA and will open in a separate window not controlled by AirNav.

 

 
 

Would you like to see your business listed on this page?

 If your business provides an interesting product or service to pilots, flight crews, aircraft, or users of the Boyle R & D Airport, you should consider listing it here.  To start the listing process, click on the button below
 
Add a business
 

Other Pages about Boyle R & D Airport

Update a link
 
Copyright © AirNav, LLC. All rights reserved. Privacy Policy  Contact